Time,TemperatureF,DewpointF,PressureIn,WindDirection,WindDirectionDegrees,WindSpeedMPH,WindSpeedGustMPH,Humidity,HourlyPrecipIn,Conditions,Clouds,dailyrainin,SoftwareType,DateUTC
2013-03-19 00:00:00,29.1,26.8,30.27,NE,49,0.0,1.0,91,0.00,,,0.00,WeatherCatV1.11B39,2013-03-19 04:00:00,
2013-03-19 00:05:00,29.1,27.1,30.27,SSE,165,0.0,1.0,92,0.00,,,0.00,WeatherCatV1.11B39,2013-03-19 04:05:00,
2013-03-19 00:10:00,29.1,27.1,30.27,SSW,212,0.0,1.0,92,0.00,,,0.00,WeatherCatV1.11B39,2013-03-19 04:10:00,
2013-03-19 00:15:00,29.1,27.1,30.26,SSW,208,0.0,1.0,92,0.00,,,0.00,WeatherCatV1.11B39,2013-03-19 04:15:00,
2013-03-19 00:20:00,29.0,27.0,30.26,West,264,0.0,1.0,92,0.00,,,0.00,WeatherCatV1.11B39,2013-03-19 04:20:00,
2013-03-19 00:25:00,29.0,27.0,30.26,SSE,159,0.0,1.0,92,0.00,,,0.00,WeatherCatV1.11B39,2013-03-19 04:25:00,
2013-03-19 00:30:00,29.0,27.0,30.25,SSE,167,0.0,1.0,92,0.00,,,0.00,WeatherCatV1.11B39,2013-03-19 04:30:00,
2013-03-19 00:35:00,29.0,27.2,30.25,WNW,297,0.0,2.0,93,0.00,,,0.00,WeatherCatV1.11B39,2013-03-19 04:35:00,
2013-03-19 00:40:00,29.1,27.3,30.24,North,354,0.0,3.0,93,0.00,,,0.00,WeatherCatV1.11B39,2013-03-19 04:40:00,
2013-03-19 00:45:00,29.1,27.3,30.24,SSE,155,4.0,5.0,93,0.00,,,0.00,WeatherCatV1.11B39,2013-03-19 04:45:00,
2013-03-19 00:50:00,29.2,27.4,30.23,WSW,243,0.0,1.0,93,0.00,,,0.00,WeatherCatV1.11B39,2013-03-19 04:50:00,
2013-03-19 00:51:00,29.2,27.4,30.23,NNW,333,1.0,2.0,93,0.00,,,0.00,WeatherCatV1.11B39,2013-03-19 04:51:00,
2013-03-19 00:56:00,29.2,27.4,30.23,SSW,212,1.0,2.0,93,0.00,,,0.00,WeatherCatV1.11B39,2013-03-19 04:56:00,
2013-03-19 01:01:00,29.2,27.7,30.23,WSW,250,0.0,0.0,94,0.00,,,0.00,WeatherCatV1.11B39,2013-03-19 05:01:00,
2013-03-19 01:06:00,29.2,27.7,30.22,ESE,122,0.0,4.0,94,0.00,,,0.00,WeatherCatV1.11B39,2013-03-19 05:06:00,
2013-03-19 01:11:00,29.3,27.8,30.21,WSW,257,1.0,3.0,94,0.00,,,0.00,WeatherCatV1.11B39,2013-03-19 05:11:00,
2013-03-19 01:16:00,29.3,27.8,30.21,SSE,158,3.0,5.0,94,0.00,,,0.00,WeatherCatV1.11B39,2013-03-19 05:16:00,
2013-03-19 01:21:00,29.3,27.8,30.20,North,359,0.0,2.0,94,0.00,,,0.00,WeatherCatV1.11B39,2013-03-19 05:21:00,
2013-03-19 01:26:00,29.3,27.8,30.20,WSW,238,0.0,3.0,94,0.00,,,0.00,WeatherCatV1.11B39,2013-03-19 05:26:00,
2013-03-19 01:31:00,29.4,27.9,30.19,NNW,343,1.0,4.0,94,0.00,,,0.00,WeatherCatV1.11B39,2013-03-19 05:31:00,
2013-03-19 01:36:00,29.4,27.9,30.19,NNW,347,2.0,4.0,94,0.00,,,0.00,WeatherCatV1.11B39,2013-03-19 05:36:00,
2013-03-19 01:41:00,29.4,27.9,30.19,SE,143,1.0,4.0,94,0.00,,,0.00,WeatherCatV1.11B39,2013-03-19 05:41:00,
2013-03-19 01:46:00,29.5,28.2,30.18,SSW,207,0.0,3.0,95,0.00,,,0.00,WeatherCatV1.11B39,2013-03-19 05:46:00,
2013-03-19 01:51:00,29.6,28.3,30.18,WSW,248,2.0,4.0,95,0.00,,,0.00,WeatherCatV1.11B39,2013-03-19 05:51:00,
2013-03-19 01:56:00,29.7,28.4,30.18,ENE,61,0.0,3.0,95,0.00,,,0.00,WeatherCatV1.11B39,2013-03-19 05:56:00,
2013-03-19 02:01:00,29.8,28.5,30.17,WNW,294,0.0,2.0,95,0.00,,,0.00,WeatherCatV1.11B39,2013-03-19 06:01:00,
2013-03-19 02:06:00,29.9,28.6,30.16,West,264,0.0,1.0,95,0.00,,,0.00,WeatherCatV1.11B39,2013-03-19 06:06:00,
2013-03-19 02:11:00,30.1,28.8,30.16,WSW,250,0.0,1.0,95,0.00,,,0.00,WeatherCatV1.11B39,2013-03-19 06:11:00,
2013-03-19 02:16:00,30.2,29.2,30.16,NE,56,0.0,2.0,96,0.00,,,0.00,WeatherCatV1.11B39,2013-03-19 06:16:00,
2013-03-19 02:21:00,30.4,29.4,30.15,East,82,1.0,1.0,96,0.00,,,0.00,WeatherCatV1.11B39,2013-03-19 06:21:00,
2013-03-19 02:26:00,30.5,29.5,30.15,South,184,1.0,2.0,96,0.00,,,0.00,WeatherCatV1.11B39,2013-03-19 06:26:00,
2013-03-19 02:31:00,30.6,29.6,30.14,South,177,1.0,4.0,96,0.00,,,0.00,WeatherCatV1.11B39,2013-03-19 06:31:00,
2013-03-19 02:36:00,30.5,29.5,30.14,WNW,293,0.0,2.0,96,0.00,,,0.00,WeatherCatV1.11B39,2013-03-19 06:36:00,
2013-03-19 02:41:00,30.5,29.2,30.14,WNW,301,0.0,1.0,95,0.00,,,0.00,WeatherCatV1.11B39,2013-03-19 06:41:00,
2013-03-19 02:46:00,30.6,29.6,30.14,North,11,1.0,2.0,96,0.00,,,0.00,WeatherCatV1.11B39,2013-03-19 06:46:00,
2013-03-19 02:51:00,30.7,29.7,30.13,SW,236,0.0,1.0,96,0.00,,,0.00,WeatherCatV1.11B39,2013-03-19 06:51:00,
2013-03-19 02:56:00,30.7,29.7,30.13,WNW,295,0.0,3.0,96,0.00,,,0.00,WeatherCatV1.11B39,2013-03-19 06:56:00,
2013-03-19 03:01:00,30.6,29.3,30.13,SW,226,0.0,2.0,95,0.00,,,0.00,WeatherCatV1.11B39,2013-03-19 07:01:00,
2013-03-19 03:06:00,30.5,29.2,30.13,East,82,0.0,1.0,95,0.00,,,0.00,WeatherCatV1.11B39,2013-03-19 07:06:00,
2013-03-19 03:11:00,30.5,29.5,30.13,NW,307,0.0,2.0,96,0.00,,,0.00,WeatherCatV1.11B39,2013-03-19 07:11:00,
2013-03-19 03:16:00,30.5,29.5,30.12,SSE,160,0.0,3.0,96,0.00,,,0.00,WeatherCatV1.11B39,2013-03-19 07:16:00,
2013-03-19 03:21:00,30.5,29.5,30.11,NE,53,0.0,4.0,96,0.00,,,0.00,WeatherCatV1.11B39,2013-03-19 07:21:00,
2013-03-19 03:26:00,30.6,29.6,30.11,West,275,0.0,0.0,96,0.00,,,0.00,WeatherCatV1.11B39,2013-03-19 07:26:00,
2013-03-19 03:31:00,30.7,29.7,30.11,North,1,0.0,1.0,96,0.00,,,0.00,WeatherCatV1.11B39,2013-03-19 07:31:00,
2013-03-19 03:36:00,30.7,29.7,30.12,SE,132,0.0,0.0,96,0.00,,,0.00,WeatherCatV1.11B39,2013-03-19 07:36:00,
2013-03-19 03:41:00,30.8,29.8,30.12,SW,228,0.0,0.0,96,0.00,,,0.00,WeatherCatV1.11B39,2013-03-19 07:41:00,
2013-03-19 03:46:00,30.7,29.7,30.12,WNW,300,0.0,0.0,96,0.00,,,0.00,WeatherCatV1.11B39,2013-03-19 07:46:00,
2013-03-19 03:51:00,30.7,29.7,30.12,SW,222,0.0,0.0,96,0.00,,,0.00,WeatherCatV1.11B39,2013-03-19 07:51:00,
2013-03-19 03:56:00,30.8,29.8,30.12,WSW,256,0.0,0.0,96,0.00,,,0.00,WeatherCatV1.11B39,2013-03-19 07:56:00,
2013-03-19 04:01:00,30.9,29.9,30.11,WSW,258,0.0,0.0,96,0.00,,,0.00,WeatherCatV1.11B39,2013-03-19 08:01:00,
2013-03-19 04:06:00,30.9,29.9,30.11,SSW,211,0.0,0.0,96,0.00,,,0.00,WeatherCatV1.11B39,2013-03-19 08:06:00,
2013-03-19 04:11:00,31.0,30.0,30.11,WNW,293,0.0,0.0,96,0.00,,,0.00,WeatherCatV1.11B39,2013-03-19 08:11:00,
2013-03-19 04:16:00,31.0,30.0,30.10,WSW,242,0.0,0.0,96,0.00,,,0.00,WeatherCatV1.11B39,2013-03-19 08:16:00,
2013-03-19 04:21:00,31.1,30.1,30.10,WSW,249,0.0,0.0,96,0.00,,,0.00,WeatherCatV1.11B39,2013-03-19 08:21:00,
2013-03-19 04:26:00,31.2,30.2,30.10,WNW,295,0.0,0.0,96,0.00,,,0.00,WeatherCatV1.11B39,2013-03-19 08:26:00,
2013-03-19 04:31:00,31.2,30.2,30.10,NE,47,0.0,0.0,96,0.00,,,0.00,WeatherCatV1.11B39,2013-03-19 08:31:00,
2013-03-19 04:36:00,31.1,30.1,30.09,WSW,243,0.0,0.0,96,0.00,,,0.00,WeatherCatV1.11B39,2013-03-19 08:36:00,
2013-03-19 04:41:00,31.2,30.2,30.09,WSW,240,0.0,0.0,96,0.00,,,0.00,WeatherCatV1.11B39,2013-03-19 08:41:00,
2013-03-19 04:46:00,31.3,30.3,30.09,SE,133,0.0,0.0,96,0.00,,,0.00,WeatherCatV1.11B39,2013-03-19 08:46:00,
2013-03-19 04:51:00,31.4,30.4,30.08,South,179,0.0,0.0,96,0.00,,,0.00,WeatherCatV1.11B39,2013-03-19 08:51:00,
2013-03-19 04:56:00,31.4,30.4,30.08,West,273,0.0,0.0,96,0.00,,,0.00,WeatherCatV1.11B39,2013-03-19 08:56:00,
2013-03-19 05:01:00,31.4,30.4,30.08,East,82,0.0,0.0,96,0.00,,,0.00,WeatherCatV1.11B39,2013-03-19 09:01:00,
2013-03-19 05:06:00,31.4,30.4,30.07,West,267,0.0,0.0,96,0.00,,,0.00,WeatherCatV1.11B39,2013-03-19 09:06:00,
2013-03-19 05:11:00,31.4,30.4,30.08,East,91,0.0,0.0,96,0.00,,,0.00,WeatherCatV1.11B39,2013-03-19 09:11:00,
2013-03-19 05:16:00,31.3,30.3,30.08,WSW,240,0.0,0.0,96,0.00,,,0.00,WeatherCatV1.11B39,2013-03-19 09:16:00,
2013-03-19 05:21:00,31.3,30.3,30.09,SSW,200,0.0,0.0,96,0.00,,,0.00,WeatherCatV1.11B39,2013-03-19 09:21:00,
2013-03-19 05:26:00,31.2,30.2,30.09,West,278,0.0,0.0,96,0.00,,,0.00,WeatherCatV1.11B39,2013-03-19 09:26:00,
2013-03-19 05:31:00,31.3,30.5,30.09,SW,231,0.0,0.0,97,0.00,,,0.00,WeatherCatV1.11B39,2013-03-19 09:31:00,
2013-03-19 05:36:00,31.2,30.5,30.09,West,276,0.0,0.0,97,0.00,,,0.00,WeatherCatV1.11B39,2013-03-19 09:36:00,
2013-03-19 05:41:00,31.2,30.5,30.08,ESE,112,0.0,0.0,97,0.00,,,0.00,WeatherCatV1.11B39,2013-03-19 09:41:00,
2013-03-19 05:46:00,31.2,30.5,30.08,North,350,0.0,0.0,97,0.00,,,0.00,WeatherCatV1.11B39,2013-03-19 09:46:00,
2013-03-19 05:51:00,31.2,30.5,30.08,NW,316,0.0,0.0,97,0.00,,,0.00,WeatherCatV1.11B39,2013-03-19 09:51:00,
2013-03-19 05:56:00,31.2,30.5,30.08,West,271,0.0,0.0,97,0.00,,,0.00,WeatherCatV1.11B39,2013-03-19 09:56:00,
2013-03-19 06:01:00,31.2,30.5,30.08,North,358,0.0,0.0,97,0.00,,,0.00,WeatherCatV1.11B39,2013-03-19 10:01:00,
2013-03-19 06:06:00,31.3,30.5,30.08,WNW,283,0.0,0.0,97,0.00,,,0.00,WeatherCatV1.11B39,2013-03-19 10:06:00,
2013-03-19 06:11:00,31.3,30.5,30.08,WNW,298,0.0,0.0,97,0.00,,,0.00,WeatherCatV1.11B39,2013-03-19 10:11:00,
2013-03-19 06:16:00,31.4,30.6,30.07,North,4,0.0,0.0,97,0.00,,,0.00,WeatherCatV1.11B39,2013-03-19 10:16:00,
2013-03-19 06:21:00,31.4,30.6,30.07,SSW,210,0.0,0.0,97,0.00,,,0.00,WeatherCatV1.11B39,2013-03-19 10:21:00,
2013-03-19 06:26:00,31.4,30.6,30.06,East,82,0.0,0.0,97,0.00,,,0.00,WeatherCatV1.11B39,2013-03-19 10:26:00,
2013-03-19 06:31:00,31.4,30.6,30.06,WSW,255,0.0,0.0,97,0.00,,,0.00,WeatherCatV1.11B39,2013-03-19 10:31:00,
2013-03-19 06:36:00,31.4,30.6,30.06,West,266,0.0,0.0,97,0.00,,,0.00,WeatherCatV1.11B39,2013-03-19 10:36:00,
2013-03-19 06:41:00,31.4,30.6,30.05,SW,219,0.0,0.0,97,0.00,,,0.00,WeatherCatV1.11B39,2013-03-19 10:41:00,
2013-03-19 06:46:00,31.5,30.7,30.05,SE,125,0.0,0.0,97,0.00,,,0.00,WeatherCatV1.11B39,2013-03-19 10:46:00,
2013-03-19 06:51:00,31.6,30.8,30.04,South,180,0.0,0.0,97,0.00,,,0.00,WeatherCatV1.11B39,2013-03-19 10:51:00,
2013-03-19 06:56:00,31.6,30.8,30.04,WSW,248,0.0,0.0,97,0.00,,,0.00,WeatherCatV1.11B39,2013-03-19 10:56:00,
2013-03-19 07:01:00,31.6,30.8,30.04,ENE,77,0.0,0.0,97,0.00,,,0.00,WeatherCatV1.11B39,2013-03-19 11:01:00,
2013-03-19 07:06:00,31.6,30.8,30.04,WNW,300,0.0,3.0,97,0.00,,,0.00,WeatherCatV1.11B39,2013-03-19 11:06:00,
2013-03-19 07:11:00,31.7,30.9,30.04,ESE,109,1.0,4.0,97,0.00,,,0.00,WeatherCatV1.11B39,2013-03-19 11:11:00,
2013-03-19 07:16:00,31.8,31.0,30.04,WNW,301,1.0,2.0,97,0.00,,,0.00,WeatherCatV1.11B39,2013-03-19 11:16:00,
2013-03-19 07:21:00,31.8,31.0,30.04,SW,222,1.0,5.0,97,0.00,,,0.00,WeatherCatV1.11B39,2013-03-19 11:21:00,
2013-03-19 07:26:00,31.8,31.0,30.04,WNW,295,0.0,7.0,97,0.00,,,0.00,WeatherCatV1.11B39,2013-03-19 11:26:00,
2013-03-19 07:31:00,31.9,31.1,30.03,NW,321,2.0,3.0,97,0.00,,,0.00,WeatherCatV1.11B39,2013-03-19 11:31:00,
2013-03-19 07:36:00,32.0,31.2,30.03,WNW,300,1.0,5.0,97,0.00,,,0.00,WeatherCatV1.11B39,2013-03-19 11:36:00,
2013-03-19 07:41:00,32.0,31.2,30.03,North,0,0.0,6.0,97,0.00,,,0.00,WeatherCatV1.11B39,2013-03-19 11:41:00,
2013-03-19 07:46:00,32.1,31.3,30.03,West,264,0.0,2.0,97,0.00,,,0.00,WeatherCatV1.11B39,2013-03-19 11:46:00,
2013-03-19 07:51:00,32.1,31.3,30.02,NE,40,3.0,4.0,97,0.00,,,0.00,WeatherCatV1.11B39,2013-03-19 11:51:00,
2013-03-19 07:56:00,32.2,31.4,30.01,SW,236,0.0,2.0,97,0.00,,,0.00,WeatherCatV1.11B39,2013-03-19 11:56:00,
2013-03-19 08:01:00,32.3,31.5,30.01,WNW,300,0.0,3.0,97,0.00,,,0.00,WeatherCatV1.11B39,2013-03-19 12:01:00,
2013-03-19 08:06:00,32.3,31.5,30.01,SW,218,1.0,4.0,97,0.00,,,0.00,WeatherCatV1.11B39,2013-03-19 12:06:00,
2013-03-19 08:11:00,32.4,31.6,30.01,WNW,283,0.0,2.0,97,0.00,,,0.00,WeatherCatV1.11B39,2013-03-19 12:11:00,
2013-03-19 08:16:00,32.4,31.6,30.00,North,9,3.0,3.0,97,0.00,,,0.00,WeatherCatV1.11B39,2013-03-19 12:16:00,
2013-03-19 08:21:00,32.5,31.7,30.00,WSW,255,1.0,1.0,97,0.00,,,0.00,WeatherCatV1.11B39,2013-03-19 12:21:00,
2013-03-19 08:26:00,32.5,31.7,30.00,ESE,114,2.0,2.0,97,0.00,,,0.00,WeatherCatV1.11B39,2013-03-19 12:26:00,
2013-03-19 08:31:00,32.5,31.7,30.00,NW,309,1.0,3.0,97,0.00,,,0.00,WeatherCatV1.11B39,2013-03-19 12:31:00,
2013-03-19 08:36:00,32.6,31.8,29.99,ENE,65,2.0,4.0,97,0.00,,,0.00,WeatherCatV1.11B39,2013-03-19 12:36:00,
2013-03-19 08:41:00,32.7,31.9,29.99,NE,44,3.0,5.0,97,0.00,,,0.00,WeatherCatV1.11B39,2013-03-19 12:41:00,
2013-03-19 08:46:00,32.7,31.9,29.99,WNW,290,0.0,5.0,97,0.00,,,0.00,WeatherCatV1.11B39,2013-03-19 12:46:00,
2013-03-19 08:51:00,32.8,32.0,29.98,West,280,1.0,6.0,97,0.00,,,0.00,WeatherCatV1.11B39,2013-03-19 12:51:00,
2013-03-19 08:56:00,32.8,32.0,29.99,West,280,0.0,7.0,97,0.00,,,0.00,WeatherCatV1.11B39,2013-03-19 12:56:00,
2013-03-19 09:01:00,32.8,32.0,29.98,WNW,302,4.0,6.0,97,0.00,,,0.00,WeatherCatV1.11B39,2013-03-19 13:01:00,
2013-03-19 09:06:00,32.9,32.1,29.98,WNW,283,1.0,7.0,97,0.00,,,0.00,WeatherCatV1.11B39,2013-03-19 13:06:00,
2013-03-19 09:11:00,32.9,32.1,29.98,NNE,17,2.0,2.0,97,0.00,,,0.00,WeatherCatV1.11B39,2013-03-19 13:11:00,
2013-03-19 09:16:00,32.9,31.9,29.97,South,174,2.0,7.0,96,0.00,,,0.00,WeatherCatV1.11B39,2013-03-19 13:16:00,
2013-03-19 09:21:00,32.9,32.1,29.97,WNW,302,0.0,4.0,97,0.00,,,0.00,WeatherCatV1.11B39,2013-03-19 13:21:00,
2013-03-19 09:26:00,33.0,32.2,29.96,South,174,1.0,3.0,97,0.00,,,0.00,WeatherCatV1.11B39,2013-03-19 13:26:00,
2013-03-19 09:31:00,33.0,32.2,29.96,North,354,2.0,10.0,97,0.00,,,0.00,WeatherCatV1.11B39,2013-03-19 13:31:00,
2013-03-19 09:36:00,33.1,32.3,29.95,WSW,248,3.0,6.0,97,0.00,,,0.00,WeatherCatV1.11B39,2013-03-19 13:36:00,
2013-03-19 09:41:00,33.1,32.3,29.95,WSW,248,4.0,6.0,97,0.00,,,0.00,WeatherCatV1.11B39,2013-03-19 13:41:00,
2013-03-19 09:46:00,33.1,32.1,29.95,SW,217,2.0,4.0,96,0.00,,,0.00,WeatherCatV1.11B39,2013-03-19 13:46:00,
2013-03-19 09:51:00,33.2,32.2,29.95,SSW,209,4.0,5.0,96,0.00,,,0.00,WeatherCatV1.11B39,2013-03-19 13:51:00,
2013-03-19 09:56:00,33.2,32.2,29.94,SW,217,1.0,5.0,96,0.00,,,0.00,WeatherCatV1.11B39,2013-03-19 13:56:00,
2013-03-19 10:01:00,33.3,32.3,29.94,WSW,250,0.0,4.0,96,0.00,,,0.00,WeatherCatV1.11B39,2013-03-19 14:01:00,
2013-03-19 10:06:00,33.3,32.3,29.94,ESE,123,8.0,8.0,96,0.00,,,0.00,WeatherCatV1.11B39,2013-03-19 14:06:00,
2013-03-19 10:11:00,33.3,32.3,29.93,WSW,257,1.0,6.0,96,0.00,,,0.00,WeatherCatV1.11B39,2013-03-19 14:11:00,
2013-03-19 10:16:00,33.3,32.3,29.93,NNW,341,1.0,4.0,96,0.00,,,0.00,WeatherCatV1.11B39,2013-03-19 14:16:00,
2013-03-19 10:21:00,33.4,32.6,29.93,North,350,4.0,4.0,97,0.00,,,0.00,WeatherCatV1.11B39,2013-03-19 14:21:00,
2013-03-19 10:26:00,33.5,32.7,29.92,SE,140,3.0,6.0,97,0.00,,,0.00,WeatherCatV1.11B39,2013-03-19 14:26:00,
2013-03-19 10:31:00,33.6,32.6,29.92,SW,219,0.0,4.0,96,0.00,,,0.00,WeatherCatV1.11B39,2013-03-19 14:31:00,
2013-03-19 10:36:00,33.7,32.7,29.92,NE,53,1.0,4.0,96,0.00,,,0.00,WeatherCatV1.11B39,2013-03-19 14:36:00,
2013-03-19 10:41:00,33.8,32.8,29.92,North,351,1.0,5.0,96,0.00,,,0.00,WeatherCatV1.11B39,2013-03-19 14:41:00,
2013-03-19 10:46:00,33.8,32.8,29.91,SSW,205,0.0,4.0,96,0.00,,,0.00,WeatherCatV1.11B39,2013-03-19 14:46:00,
2013-03-19 10:51:00,33.9,32.9,29.91,West,270,3.0,5.0,96,0.00,,,0.00,WeatherCatV1.11B39,2013-03-19 14:51:00,
2013-03-19 10:56:00,33.9,32.9,29.91,SW,234,2.0,4.0,96,0.00,,,0.00,WeatherCatV1.11B39,2013-03-19 14:56:00,
2013-03-19 11:01:00,33.9,32.9,29.91,South,169,1.0,7.0,96,0.00,,,0.01,WeatherCatV1.11B39,2013-03-19 15:01:00,
2013-03-19 11:06:00,33.9,32.9,29.91,WSW,252,0.0,3.0,96,0.12,,,0.02,WeatherCatV1.11B39,2013-03-19 15:06:00,
2013-03-19 11:11:00,34.0,33.0,29.90,WSW,243,1.0,11.0,96,0.12,,,0.03,WeatherCatV1.11B39,2013-03-19 15:11:00,
2013-03-19 11:16:00,34.0,33.0,29.90,East,90,1.0,3.0,96,0.12,,,0.03,WeatherCatV1.11B39,2013-03-19 15:16:00,
2013-03-19 11:21:00,34.1,33.1,29.90,SSW,204,1.0,4.0,96,0.12,,,0.04,WeatherCatV1.11B39,2013-03-19 15:21:00,
2013-03-19 11:26:00,34.1,33.1,29.89,SSW,204,2.0,7.0,96,0.11,,,0.05,WeatherCatV1.11B39,2013-03-19 15:26:00,
2013-03-19 11:31:00,34.1,33.1,29.89,WNW,283,2.0,3.0,96,0.11,,,0.06,WeatherCatV1.11B39,2013-03-19 15:31:00,
2013-03-19 11:36:00,34.1,33.1,29.88,WSW,246,3.0,7.0,96,0.11,,,0.07,WeatherCatV1.11B39,2013-03-19 15:36:00,
2013-03-19 11:41:00,34.1,33.1,29.88,West,264,3.0,6.0,96,0.11,,,0.08,WeatherCatV1.11B39,2013-03-19 15:41:00,
2013-03-19 11:46:00,34.2,33.2,29.87,South,183,0.0,4.0,96,0.12,,,0.09,WeatherCatV1.11B39,2013-03-19 15:46:00,
2013-03-19 11:51:00,34.3,33.3,29.87,ESE,108,2.0,8.0,96,0.12,,,0.10,WeatherCatV1.11B39,2013-03-19 15:51:00,
2013-03-19 11:56:00,34.3,33.3,29.86,SSW,207,3.0,7.0,96,0.12,,,0.11,WeatherCatV1.11B39,2013-03-19 15:56:00,
2013-03-19 12:01:00,34.4,33.4,29.86,ESE,111,2.0,5.0,96,0.12,,,0.12,WeatherCatV1.11B39,2013-03-19 16:01:00,
2013-03-19 12:06:00,34.5,33.5,29.85,WSW,255,1.0,4.0,96,0.12,,,0.13,WeatherCatV1.11B39,2013-03-19 16:06:00,
2013-03-19 12:11:00,34.6,33.6,29.85,WNW,302,3.0,3.0,96,0.12,,,0.14,WeatherCatV1.11B39,2013-03-19 16:11:00,
2013-03-19 12:16:00,34.6,33.6,29.85,WNW,288,2.0,6.0,96,0.11,,,0.15,WeatherCatV1.11B39,2013-03-19 16:16:00,
2013-03-19 12:21:00,34.6,33.3,29.85,NW,318,1.0,4.0,95,0.10,,,0.16,WeatherCatV1.11B39,2013-03-19 16:21:00,
2013-03-19 12:26:00,34.6,33.6,29.84,SSE,156,4.0,9.0,96,0.10,,,0.17,WeatherCatV1.11B39,2013-03-19 16:26:00,
2013-03-19 12:31:00,34.8,33.8,29.84,ENE,69,2.0,5.0,96,0.10,,,0.18,WeatherCatV1.11B39,2013-03-19 16:31:00,
2013-03-19 12:36:00,34.8,33.5,29.83,West,269,2.0,6.0,95,0.10,,,0.18,WeatherCatV1.11B39,2013-03-19 16:36:00,
2013-03-19 12:41:00,34.8,33.5,29.83,WSW,255,2.0,6.0,95,0.08,,,0.19,WeatherCatV1.11B39,2013-03-19 16:41:00,
2013-03-19 12:46:00,34.8,33.5,29.82,WNW,298,3.0,6.0,95,0.09,,,0.20,WeatherCatV1.11B39,2013-03-19 16:46:00,
2013-03-19 12:51:00,34.7,33.4,29.82,NE,41,3.0,11.0,95,0.09,,,0.20,WeatherCatV1.11B39,2013-03-19 16:51:00,
2013-03-19 12:56:00,34.8,33.5,29.81,WSW,240,3.0,12.0,95,0.08,,,0.21,WeatherCatV1.11B39,2013-03-19 16:56:00,
2013-03-19 13:02:00,34.8,33.5,29.81,WSW,250,1.0,5.0,95,0.07,,,0.21,WeatherCatV1.11B39,2013-03-19 17:02:00,
2013-03-19 13:07:00,34.8,33.5,29.81,NNW,335,2.0,5.0,95,0.07,,,0.22,WeatherCatV1.11B39,2013-03-19 17:07:00,
2013-03-19 13:12:00,34.9,33.9,29.81,WSW,249,1.0,4.0,96,0.08,,,0.23,WeatherCatV1.11B39,2013-03-19 17:12:00,
2013-03-19 13:17:00,34.9,33.9,29.80,WNW,302,1.0,5.0,96,0.08,,,0.23,WeatherCatV1.11B39,2013-03-19 17:17:00,
2013-03-19 13:22:00,34.9,33.9,29.80,North,359,5.0,7.0,96,0.08,,,0.24,WeatherCatV1.11B39,2013-03-19 17:22:00,
2013-03-19 13:27:00,35.0,34.0,29.79,WNW,287,2.0,7.0,96,0.09,,,0.25,WeatherCatV1.11B39,2013-03-19 17:27:00,
2013-03-19 13:32:00,35.1,34.1,29.78,WSW,245,7.0,7.0,96,0.09,,,0.26,WeatherCatV1.11B39,2013-03-19 17:32:00,
2013-03-19 13:37:00,35.2,34.2,29.77,SSW,194,2.0,9.0,96,0.12,,,0.27,WeatherCatV1.11B39,2013-03-19 17:37:00,
2013-03-19 13:42:00,35.4,34.1,29.76,SSE,162,2.0,7.0,95,0.13,,,0.28,WeatherCatV1.11B39,2013-03-19 17:42:00,
2013-03-19 13:47:00,35.5,34.2,29.76,WNW,295,1.0,3.0,95,0.10,,,0.29,WeatherCatV1.11B39,2013-03-19 17:47:00,
2013-03-19 13:52:00,35.5,34.2,29.76,SW,225,2.0,6.0,95,0.10,,,0.29,WeatherCatV1.11B39,2013-03-19 17:52:00,
2013-03-19 13:57:00,35.6,34.3,29.75,SW,218,1.0,9.0,95,0.13,,,0.31,WeatherCatV1.11B39,2013-03-19 17:57:00,
2013-03-19 14:02:00,35.6,34.3,29.74,NW,319,1.0,4.0,95,0.13,,,0.32,WeatherCatV1.11B39,2013-03-19 18:02:00,
2013-03-19 14:07:00,35.5,34.2,29.73,SSE,162,2.0,3.0,95,0.11,,,0.32,WeatherCatV1.11B39,2013-03-19 18:07:00,
2013-03-19 14:12:00,35.5,34.2,29.74,SW,214,0.0,4.0,95,0.10,,,0.33,WeatherCatV1.11B39,2013-03-19 18:12:00,
2013-03-19 14:17:00,35.5,34.2,29.74,NNW,339,4.0,6.0,95,0.12,,,0.34,WeatherCatV1.11B39,2013-03-19 18:17:00,
2013-03-19 14:22:00,35.4,34.1,29.74,WNW,287,1.0,3.0,95,0.08,,,0.35,WeatherCatV1.11B39,2013-03-19 18:22:00,
2013-03-19 14:27:00,35.3,34.0,29.73,NNE,27,4.0,4.0,95,0.10,,,0.36,WeatherCatV1.11B39,2013-03-19 18:27:00,
2013-03-19 14:32:00,35.3,34.3,29.73,East,96,2.0,5.0,96,0.12,,,0.37,WeatherCatV1.11B39,2013-03-19 18:32:00,
2013-03-19 14:37:00,35.3,34.3,29.72,ESE,122,4.0,4.0,96,0.10,,,0.38,WeatherCatV1.11B39,2013-03-19 18:37:00,
2013-03-19 14:42:00,35.3,34.3,29.72,NW,314,1.0,5.0,96,0.13,,,0.39,WeatherCatV1.11B39,2013-03-19 18:42:00,
2013-03-19 14:47:00,35.3,34.3,29.72,WSW,239,2.0,3.0,96,0.18,,,0.40,WeatherCatV1.11B39,2013-03-19 18:47:00,
2013-03-19 14:52:00,35.3,34.3,29.73,NNW,346,1.0,3.0,96,0.16,,,0.41,WeatherCatV1.11B39,2013-03-19 18:52:00,
2013-03-19 14:57:00,35.4,34.4,29.76,NW,322,0.0,4.0,96,0.11,,,0.42,WeatherCatV1.11B39,2013-03-19 18:57:00,
2013-03-19 15:02:00,35.4,34.4,29.79,NE,46,1.0,3.0,96,0.09,,,0.43,WeatherCatV1.11B39,2013-03-19 19:02:00,
2013-03-19 15:07:00,35.4,34.4,29.79,North,349,1.0,2.0,96,0.09,,,0.44,WeatherCatV1.11B39,2013-03-19 19:07:00,
2013-03-19 15:12:00,35.3,34.3,29.77,NNE,16,0.0,1.0,96,0.12,,,0.45,WeatherCatV1.11B39,2013-03-19 19:12:00,
2013-03-19 15:17:00,35.2,33.9,29.77,NNE,30,0.0,2.0,95,0.11,,,0.45,WeatherCatV1.11B39,2013-03-19 19:17:00,
2013-03-19 15:22:00,35.0,33.7,29.75,NNW,347,0.0,1.0,95,0.06,,,0.45,WeatherCatV1.11B39,2013-03-19 19:22:00,
2013-03-19 15:26:00,34.5,33.2,29.75,West,262,0.0,0.0,95,0.04,,,0.45,WeatherCatV1.11B39,2013-03-19 19:26:00,
2013-03-19 15:31:00,34.1,32.8,29.75,SSE,148,0.0,0.0,95,0.00,,,0.45,WeatherCatV1.11B39,2013-03-19 19:31:00,
2013-03-19 15:36:00,33.8,32.5,29.74,SSE,156,0.0,1.0,95,0.00,,,0.45,WeatherCatV1.11B39,2013-03-19 19:36:00,
2013-03-19 15:42:00,33.5,32.2,29.74,NW,321,0.0,1.0,95,0.00,,,0.45,WeatherCatV1.11B39,2013-03-19 19:42:00,
2013-03-19 15:46:00,33.4,32.1,29.74,North,1,1.0,3.0,95,0.00,,,0.45,WeatherCatV1.11B39,2013-03-19 19:46:00,
2013-03-19 15:51:00,33.2,32.2,29.75,NNE,15,1.0,2.0,96,0.00,,,0.45,WeatherCatV1.11B39,2013-03-19 19:51:00,
2013-03-19 15:56:00,33.1,32.1,29.75,NNE,26,1.0,4.0,96,0.00,,,0.45,WeatherCatV1.11B39,2013-03-19 19:56:00,
2013-03-19 16:01:00,33.1,32.1,29.76,NW,306,3.0,5.0,96,0.00,,,0.45,WeatherCatV1.11B39,2013-03-19 20:01:00,
2013-03-19 16:06:00,33.1,32.1,29.75,NNE,20,1.0,2.0,96,0.00,,,0.45,WeatherCatV1.11B39,2013-03-19 20:06:00,
2013-03-19 16:11:00,33.0,32.0,29.70,WSW,240,0.0,1.0,96,0.00,,,0.45,WeatherCatV1.11B39,2013-03-19 20:11:00,
2013-03-19 16:16:00,33.1,32.1,29.67,NNW,338,1.0,5.0,96,0.00,,,0.45,WeatherCatV1.11B39,2013-03-19 20:16:00,
2013-03-19 16:21:00,33.5,32.5,29.66,North,8,1.0,5.0,96,0.00,,,0.45,WeatherCatV1.11B39,2013-03-19 20:21:00,
2013-03-19 16:26:00,33.6,32.6,29.67,NNE,26,1.0,6.0,96,0.00,,,0.45,WeatherCatV1.11B39,2013-03-19 20:26:00,
2013-03-19 16:31:00,33.9,32.9,29.67,SW,218,1.0,10.0,96,0.00,,,0.46,WeatherCatV1.11B39,2013-03-19 20:31:00,
2013-03-19 16:36:00,34.1,33.1,29.66,NW,312,1.0,2.0,96,0.09,,,0.47,WeatherCatV1.11B39,2013-03-19 20:36:00,
2013-03-19 16:41:00,34.1,32.8,29.67,WSW,245,0.0,8.0,95,0.11,,,0.48,WeatherCatV1.11B39,2013-03-19 20:41:00,
2013-03-19 16:46:00,34.2,32.9,29.67,WNW,290,3.0,5.0,95,0.13,,,0.49,WeatherCatV1.11B39,2013-03-19 20:46:00,
2013-03-19 16:51:00,34.5,33.5,29.67,South,181,0.0,2.0,96,0.12,,,0.50,WeatherCatV1.11B39,2013-03-19 20:51:00,
2013-03-19 16:56:00,34.5,33.2,29.66,NNW,330,1.0,4.0,95,0.11,,,0.51,WeatherCatV1.11B39,2013-03-19 20:56:00,
2013-03-19 17:01:00,34.5,33.2,29.66,NNW,345,0.0,5.0,95,0.11,,,0.51,WeatherCatV1.11B39,2013-03-19 21:01:00,
2013-03-19 17:06:00,34.6,33.3,29.64,WSW,239,2.0,7.0,95,0.10,,,0.52,WeatherCatV1.11B39,2013-03-19 21:06:00,
2013-03-19 17:11:00,34.5,33.2,29.64,NNW,342,1.0,5.0,95,0.08,,,0.53,WeatherCatV1.11B39,2013-03-19 21:11:00,
2013-03-19 17:16:00,34.5,33.2,29.64,ESE,104,1.0,9.0,95,0.08,,,0.53,WeatherCatV1.11B39,2013-03-19 21:16:00,
2013-03-19 17:21:00,34.4,33.1,29.64,SSW,203,1.0,8.0,95,0.07,,,0.54,WeatherCatV1.11B39,2013-03-19 21:21:00,
2013-03-19 17:26:00,34.4,33.1,29.64,NNW,335,2.0,9.0,95,0.07,,,0.54,WeatherCatV1.11B39,2013-03-19 21:26:00,
2013-03-19 17:31:00,34.3,33.0,29.64,South,172,1.0,5.0,95,0.05,,,0.55,WeatherCatV1.11B39,2013-03-19 21:31:00,
2013-03-19 17:36:00,34.3,33.0,29.64,SSE,153,0.0,1.0,95,0.05,,,0.55,WeatherCatV1.11B39,2013-03-19 21:36:00,
2013-03-19 17:41:00,34.2,32.9,29.65,North,11,2.0,3.0,95,0.05,,,0.55,WeatherCatV1.11B39,2013-03-19 21:41:00,
2013-03-19 17:46:00,34.2,32.9,29.64,South,170,8.0,8.0,95,0.04,,,0.56,WeatherCatV1.11B39,2013-03-19 21:46:00,
2013-03-19 17:51:00,34.1,32.8,29.64,South,177,0.0,6.0,95,0.04,,,0.56,WeatherCatV1.11B39,2013-03-19 21:51:00,
2013-03-19 17:56:00,34.0,32.7,29.65,West,267,0.0,6.0,95,0.04,,,0.56,WeatherCatV1.11B39,2013-03-19 21:56:00,
2013-03-19 18:02:00,34.0,32.7,29.64,NNE,23,1.0,6.0,95,0.00,,,0.57,WeatherCatV1.11B39,2013-03-19 22:02:00,
2013-03-19 18:07:00,34.0,32.7,29.64,NW,315,0.0,4.0,95,0.00,,,0.57,WeatherCatV1.11B39,2013-03-19 22:07:00,
2013-03-19 18:12:00,33.9,32.6,29.64,NNE,16,3.0,3.0,95,0.00,,,0.57,WeatherCatV1.11B39,2013-03-19 22:12:00,
2013-03-19 18:17:00,33.9,32.6,29.64,North,4,2.0,6.0,95,0.00,,,0.57,WeatherCatV1.11B39,2013-03-19 22:17:00,
2013-03-19 18:22:00,33.8,32.5,29.64,NW,304,0.0,1.0,95,0.00,,,0.57,WeatherCatV1.11B39,2013-03-19 22:22:00,
2013-03-19 18:27:00,33.8,32.5,29.64,NNE,16,5.0,5.0,95,0.00,,,0.58,WeatherCatV1.11B39,2013-03-19 22:27:00,
2013-03-19 18:32:00,33.7,32.4,29.65,NNW,329,3.0,3.0,95,0.00,,,0.58,WeatherCatV1.11B39,2013-03-19 22:32:00,
2013-03-19 18:37:00,33.7,32.4,29.64,West,269,0.0,2.0,95,0.00,,,0.58,WeatherCatV1.11B39,2013-03-19 22:37:00,
2013-03-19 18:42:00,33.6,32.3,29.65,East,91,1.0,3.0,95,0.00,,,0.59,WeatherCatV1.11B39,2013-03-19 22:42:00,
2013-03-19 18:47:00,33.6,32.3,29.65,NE,41,0.0,6.0,95,0.00,,,0.59,WeatherCatV1.11B39,2013-03-19 22:47:00,
2013-03-19 18:52:00,33.6,32.6,29.64,NE,45,0.0,2.0,96,0.00,,,0.59,WeatherCatV1.11B39,2013-03-19 22:52:00,
2013-03-19 18:57:00,33.6,32.6,29.64,WSW,257,1.0,2.0,96,0.05,,,0.60,WeatherCatV1.11B39,2013-03-19 22:57:00,
2013-03-19 19:02:00,33.5,32.5,29.64,South,171,1.0,3.0,96,0.05,,,0.60,WeatherCatV1.11B39,2013-03-19 23:02:00,
2013-03-19 19:07:00,33.5,32.5,29.64,South,188,1.0,3.0,96,0.04,,,0.60,WeatherCatV1.11B39,2013-03-19 23:07:00,
2013-03-19 19:12:00,33.5,32.5,29.64,NNW,331,0.0,2.0,96,0.00,,,0.60,WeatherCatV1.11B39,2013-03-19 23:12:00,
2013-03-19 19:17:00,33.5,32.5,29.64,North,7,2.0,4.0,96,0.00,,,0.61,WeatherCatV1.11B39,2013-03-19 23:17:00,
2013-03-19 19:22:00,33.4,32.4,29.64,ENE,61,1.0,4.0,96,0.00,,,0.61,WeatherCatV1.11B39,2013-03-19 23:22:00,
2013-03-19 19:27:00,33.4,32.4,29.64,SW,218,1.0,1.0,96,0.00,,,0.61,WeatherCatV1.11B39,2013-03-19 23:27:00,
2013-03-19 19:32:00,33.4,32.4,29.64,NNE,33,2.0,2.0,96,0.00,,,0.61,WeatherCatV1.11B39,2013-03-19 23:32:00,
2013-03-19 19:37:00,33.4,32.4,29.64,South,174,2.0,10.0,96,0.00,,,0.61,WeatherCatV1.11B39,2013-03-19 23:37:00,
2013-03-19 19:42:00,33.5,32.5,29.64,NE,41,0.0,2.0,96,0.00,,,0.61,WeatherCatV1.11B39,2013-03-19 23:42:00,
2013-03-19 19:47:00,33.5,32.5,29.64,North,353,0.0,2.0,96,0.00,,,0.62,WeatherCatV1.11B39,2013-03-19 23:47:00,
2013-03-19 19:52:00,33.4,32.4,29.64,WSW,245,2.0,3.0,96,0.00,,,0.62,WeatherCatV1.11B39,2013-03-19 23:52:00,
2013-03-19 19:57:00,33.5,32.5,29.64,NNW,330,0.0,4.0,96,0.00,,,0.62,WeatherCatV1.11B39,2013-03-19 23:57:00,
2013-03-19 20:02:00,33.5,32.2,29.64,NE,36,0.0,4.0,95,0.00,,,0.62,WeatherCatV1.11B39,2013-03-20 00:02:00,
2013-03-19 20:07:00,33.5,32.2,29.65,SW,218,1.0,1.0,95,0.00,,,0.62,WeatherCatV1.11B39,2013-03-20 00:07:00,
2013-03-19 20:12:00,33.4,32.1,29.65,North,351,2.0,3.0,95,0.00,,,0.62,WeatherCatV1.11B39,2013-03-20 00:12:00,
2013-03-19 20:17:00,33.4,32.1,29.65,NNW,332,3.0,4.0,95,0.00,,,0.62,WeatherCatV1.11B39,2013-03-20 00:17:00,
2013-03-19 20:22:00,33.3,32.0,29.64,NNE,26,0.0,2.0,95,0.00,,,0.62,WeatherCatV1.11B39,2013-03-20 00:22:00,
2013-03-19 20:27:00,33.3,32.0,29.64,SE,134,1.0,5.0,95,0.00,,,0.63,WeatherCatV1.11B39,2013-03-20 00:27:00,
2013-03-19 20:32:00,33.2,31.9,29.63,SSE,150,0.0,1.0,95,0.00,,,0.63,WeatherCatV1.11B39,2013-03-20 00:32:00,
2013-03-19 20:37:00,33.2,31.9,29.64,NNW,335,1.0,5.0,95,0.00,,,0.63,WeatherCatV1.11B39,2013-03-20 00:37:00,
2013-03-19 20:42:00,33.1,31.8,29.65,SW,231,1.0,4.0,95,0.00,,,0.63,WeatherCatV1.11B39,2013-03-20 00:42:00,
2013-03-19 20:47:00,32.9,31.9,29.65,WSW,243,1.0,1.0,96,0.00,,,0.63,WeatherCatV1.11B39,2013-03-20 00:47:00,
2013-03-19 20:52:00,32.8,31.8,29.65,North,5,0.0,4.0,96,0.00,,,0.63,WeatherCatV1.11B39,2013-03-20 00:52:00,
2013-03-19 20:57:00,32.8,31.8,29.66,WSW,242,0.0,3.0,96,0.00,,,0.63,WeatherCatV1.11B39,2013-03-20 00:57:00,
2013-03-19 21:02:00,32.7,31.7,29.67,SE,131,1.0,3.0,96,0.00,,,0.63,WeatherCatV1.11B39,2013-03-20 01:02:00,
2013-03-19 21:07:00,32.7,31.7,29.68,SW,222,0.0,2.0,96,0.00,,,0.63,WeatherCatV1.11B39,2013-03-20 01:07:00,
2013-03-19 21:12:00,32.6,31.6,29.68,SSE,148,0.0,1.0,96,0.00,,,0.63,WeatherCatV1.11B39,2013-03-20 01:12:00,
2013-03-19 21:17:00,32.5,31.5,29.68,SSW,204,0.0,1.0,96,0.00,,,0.63,WeatherCatV1.11B39,2013-03-20 01:17:00,
2013-03-19 21:22:00,32.5,31.5,29.68,ESE,110,0.0,0.0,96,0.00,,,0.63,WeatherCatV1.11B39,2013-03-20 01:22:00,
2013-03-19 21:27:00,32.5,31.5,29.69,NNW,348,0.0,1.0,96,0.00,,,0.63,WeatherCatV1.11B39,2013-03-20 01:27:00,
2013-03-19 21:32:00,32.4,31.4,29.69,NNE,15,0.0,1.0,96,0.00,,,0.63,WeatherCatV1.11B39,2013-03-20 01:32:00,
2013-03-19 21:37:00,32.4,31.4,29.68,SW,236,0.0,2.0,96,0.00,,,0.63,WeatherCatV1.11B39,2013-03-20 01:37:00,
2013-03-19 21:42:00,32.3,31.3,29.68,WSW,243,1.0,4.0,96,0.00,,,0.63,WeatherCatV1.11B39,2013-03-20 01:42:00,
2013-03-19 21:47:00,32.1,31.1,29.69,SW,222,0.0,4.0,96,0.00,,,0.63,WeatherCatV1.11B39,2013-03-20 01:47:00,
2013-03-19 21:52:00,31.9,30.9,29.69,SSE,152,1.0,1.0,96,0.00,,,0.63,WeatherCatV1.11B39,2013-03-20 01:52:00,
2013-03-19 21:57:00,31.7,30.7,29.70,North,352,1.0,1.0,96,0.00,,,0.63,WeatherCatV1.11B39,2013-03-20 01:57:00,
2013-03-19 22:02:00,31.5,30.5,29.70,North,5,1.0,4.0,96,0.00,,,0.63,WeatherCatV1.11B39,2013-03-20 02:02:00,
2013-03-19 22:07:00,31.3,30.0,29.71,North,356,2.0,3.0,95,0.00,,,0.63,WeatherCatV1.11B39,2013-03-20 02:07:00,
2013-03-19 22:12:00,31.1,29.8,29.71,NNW,347,1.0,4.0,95,0.00,,,0.63,WeatherCatV1.11B39,2013-03-20 02:12:00,
2013-03-19 22:17:00,30.9,29.6,29.71,North,9,6.0,6.0,95,0.00,,,0.63,WeatherCatV1.11B39,2013-03-20 02:17:00,
2013-03-19 22:22:00,30.8,29.5,29.71,NNE,17,1.0,3.0,95,0.00,,,0.63,WeatherCatV1.11B39,2013-03-20 02:22:00,
2013-03-19 22:27:00,30.6,29.3,29.71,SSW,208,0.0,3.0,95,0.00,,,0.63,WeatherCatV1.11B39,2013-03-20 02:27:00,
2013-03-19 22:32:00,30.4,29.1,29.71,SW,217,0.0,1.0,95,0.00,,,0.63,WeatherCatV1.11B39,2013-03-20 02:32:00,
2013-03-19 22:37:00,30.2,28.7,29.71,WNW,300,0.0,2.0,94,0.00,,,0.63,WeatherCatV1.11B39,2013-03-20 02:37:00,
2013-03-19 22:42:00,30.0,28.5,29.71,NNW,335,0.0,2.0,94,0.00,,,0.63,WeatherCatV1.11B39,2013-03-20 02:42:00,
2013-03-19 22:47:00,29.9,28.4,29.71,SSW,204,1.0,5.0,94,0.00,,,0.63,WeatherCatV1.11B39,2013-03-20 02:47:00,
2013-03-19 22:52:00,29.7,27.9,29.71,East,87,1.0,2.0,93,0.00,,,0.63,WeatherCatV1.11B39,2013-03-20 02:52:00,
2013-03-19 22:57:00,29.6,27.8,29.71,SW,215,0.0,1.0,93,0.00,,,0.63,WeatherCatV1.11B39,2013-03-20 02:57:00,
2013-03-19 23:02:00,29.5,27.7,29.71,North,7,0.0,1.0,93,0.00,,,0.63,WeatherCatV1.11B39,2013-03-20 03:02:00,
2013-03-19 23:07:00,29.4,27.9,29.71,SSW,212,0.0,0.0,94,0.00,,,0.63,WeatherCatV1.11B39,2013-03-20 03:07:00,
2013-03-19 23:12:00,29.3,27.8,29.70,NNE,13,3.0,3.0,94,0.00,,,0.63,WeatherCatV1.11B39,2013-03-20 03:12:00,
2013-03-19 23:17:00,29.2,27.4,29.71,NNW,333,1.0,2.0,93,0.00,,,0.63,WeatherCatV1.11B39,2013-03-20 03:17:00,
2013-03-19 23:22:00,29.0,27.2,29.71,NW,321,0.0,1.0,93,0.00,,,0.63,WeatherCatV1.11B39,2013-03-20 03:22:00,
2013-03-19 23:27:00,28.8,26.8,29.71,NW,312,1.0,4.0,92,0.00,,,0.63,WeatherCatV1.11B39,2013-03-20 03:27:00,
2013-03-19 23:32:00,28.7,26.7,29.71,North,0,0.0,3.0,92,0.00,,,0.63,WeatherCatV1.11B39,2013-03-20 03:32:00,
2013-03-19 23:37:00,28.5,26.5,29.70,NNW,346,1.0,6.0,92,0.00,,,0.63,WeatherCatV1.11B39,2013-03-20 03:37:00,
2013-03-19 23:42:00,28.5,26.5,29.70,NNW,335,2.0,3.0,92,0.00,,,0.63,WeatherCatV1.11B39,2013-03-20 03:42:00,
2013-03-19 23:47:00,28.3,26.3,29.71,NE,48,2.0,2.0,92,0.00,,,0.63,WeatherCatV1.11B39,2013-03-20 03:47:00,
2013-03-19 23:52:00,28.1,26.1,29.71,NNE,13,1.0,5.0,92,0.00,,,0.63,WeatherCatV1.11B39,2013-03-20 03:52:00,
2013-03-19 23:57:00,27.9,25.9,29.71,South,177,1.0,1.0,92,0.00,,,0.63,WeatherCatV1.11B39,2013-03-20 03:57:00,